sensor_id;sensor_type;location;lat;lon;timestamp;temperature;humidity
26230;DHT22;13960;50.860;4.352;2022-10-16T00:00:39;15.20;99.90
26230;DHT22;13960;50.860;4.352;2022-10-16T00:03:04;15.20;99.90
26230;DHT22;13960;50.860;4.352;2022-10-16T00:05:30;15.30;99.90
26230;DHT22;13960;50.860;4.352;2022-10-16T00:07:55;15.20;99.90
26230;DHT22;13960;50.860;4.352;2022-10-16T00:10:21;15.20;99.90
26230;DHT22;13960;50.860;4.352;2022-10-16T00:12:47;15.20;99.90
26230;DHT22;13960;50.860;4.352;2022-10-16T00:15:12;15.20;99.90
26230;DHT22;13960;50.860;4.352;2022-10-16T00:17:38;15.10;99.90
26230;DHT22;13960;50.860;4.352;2022-10-16T00:20:04;15.00;99.90
26230;DHT22;13960;50.860;4.352;2022-10-16T00:22:29;15.00;99.90
26230;DHT22;13960;50.860;4.352;2022-10-16T00:24:55;15.00;99.90
26230;DHT22;13960;50.860;4.352;2022-10-16T00:27:20;15.00;99.90
26230;DHT22;13960;50.860;4.352;2022-10-16T00:29:49;15.00;99.90
26230;DHT22;13960;50.860;4.352;2022-10-16T00:32:15;15.00;99.90
26230;DHT22;13960;50.860;4.352;2022-10-16T00:34:40;15.00;99.90
26230;DHT22;13960;50.860;4.352;2022-10-16T00:37:06;15.00;99.90
26230;DHT22;13960;50.860;4.352;2022-10-16T00:39:31;14.90;99.90
26230;DHT22;13960;50.860;4.352;2022-10-16T00:41:57;14.90;99.90
26230;DHT22;13960;50.860;4.352;2022-10-16T00:47:09;14.90;99.90
26230;DHT22;13960;50.860;4.352;2022-10-16T00:49:35;14.90;99.90
26230;DHT22;13960;50.860;4.352;2022-10-16T00:52:00;14.90;99.90
26230;DHT22;13960;50.860;4.352;2022-10-16T00:54:26;14.80;99.90
26230;DHT22;13960;50.860;4.352;2022-10-16T00:56:53;14.90;99.90
26230;DHT22;13960;50.860;4.352;2022-10-16T00:59:20;14.80;99.90
26230;DHT22;13960;50.860;4.352;2022-10-16T01:01:47;14.80;99.90
26230;DHT22;13960;50.860;4.352;2022-10-16T01:04:13;14.80;99.90
26230;DHT22;13960;50.860;4.352;2022-10-16T01:06:43;14.70;99.90
26230;DHT22;13960;50.860;4.352;2022-10-16T01:09:13;14.70;99.90
26230;DHT22;13960;50.860;4.352;2022-10-16T01:14:20;14.70;99.90
26230;DHT22;13960;50.860;4.352;2022-10-16T01:16:49;14.80;99.90
26230;DHT22;13960;50.860;4.352;2022-10-16T01:21:55;14.80;99.90
26230;DHT22;13960;50.860;4.352;2022-10-16T01:27:05;14.90;99.90
26230;DHT22;13960;50.860;4.352;2022-10-16T01:29:37;14.80;99.90
26230;DHT22;13960;50.860;4.352;2022-10-16T01:32:05;14.80;99.90
26230;DHT22;13960;50.860;4.352;2022-10-16T01:34:39;14.80;99.90
26230;DHT22;13960;50.860;4.352;2022-10-16T01:37:12;14.80;99.90
26230;DHT22;13960;50.860;4.352;2022-10-16T01:39:40;14.70;99.90
26230;DHT22;13960;50.860;4.352;2022-10-16T01:42:11;14.80;99.90
26230;DHT22;13960;50.860;4.352;2022-10-16T01:44:38;14.70;99.90
26230;DHT22;13960;50.860;4.352;2022-10-16T01:47:05;14.70;99.90
26230;DHT22;13960;50.860;4.352;2022-10-16T01:49:32;14.50;99.90
26230;DHT22;13960;50.860;4.352;2022-10-16T01:51:58;14.60;99.90
26230;DHT22;13960;50.860;4.352;2022-10-16T01:54:28;14.60;99.90
26230;DHT22;13960;50.860;4.352;2022-10-16T01:56:56;14.60;99.90
26230;DHT22;13960;50.860;4.352;2022-10-16T01:59:23;14.60;99.90
26230;DHT22;13960;50.860;4.352;2022-10-16T02:01:50;14.60;99.90
26230;DHT22;13960;50.860;4.352;2022-10-16T02:04:34;14.60;99.90
26230;DHT22;13960;50.860;4.352;2022-10-16T02:07:01;14.60;99.90
26230;DHT22;13960;50.860;4.352;2022-10-16T02:09:27;14.50;99.90
26230;DHT22;13960;50.860;4.352;2022-10-16T02:11:53;14.60;99.90
26230;DHT22;13960;50.860;4.352;2022-10-16T02:14:20;14.60;99.90
26230;DHT22;13960;50.860;4.352;2022-10-16T02:16:47;14.60;99.90
26230;DHT22;13960;50.860;4.352;2022-10-16T02:19:13;14.60;99.90
26230;DHT22;13960;50.860;4.352;2022-10-16T02:21:42;14.60;99.90
26230;DHT22;13960;50.860;4.352;2022-10-16T02:24:10;14.60;99.90
26230;DHT22;13960;50.860;4.352;2022-10-16T02:29:07;14.60;99.90
26230;DHT22;13960;50.860;4.352;2022-10-16T02:31:34;14.50;99.90
26230;DHT22;13960;50.860;4.352;2022-10-16T02:34:01;14.50;99.90
26230;DHT22;13960;50.860;4.352;2022-10-16T02:36:28;14.40;99.90
26230;DHT22;13960;50.860;4.352;2022-10-16T02:38:54;14.40;99.90
26230;DHT22;13960;50.860;4.352;2022-10-16T02:41:21;14.40;99.90
26230;DHT22;13960;50.860;4.352;2022-10-16T02:43:47;14.40;99.90
26230;DHT22;13960;50.860;4.352;2022-10-16T02:46:12;14.40;99.90
26230;DHT22;13960;50.860;4.352;2022-10-16T02:48:38;14.40;99.90
26230;DHT22;13960;50.860;4.352;2022-10-16T02:51:04;14.40;99.90
26230;DHT22;13960;50.860;4.352;2022-10-16T02:53:30;14.40;99.90
26230;DHT22;13960;50.860;4.352;2022-10-16T02:55:56;14.40;99.90
26230;DHT22;13960;50.860;4.352;2022-10-16T02:58:21;14.40;99.90
26230;DHT22;13960;50.860;4.352;2022-10-16T03:00:47;14.40;99.90
26230;DHT22;13960;50.860;4.352;2022-10-16T03:03:13;14.50;99.90
26230;DHT22;13960;50.860;4.352;2022-10-16T03:05:38;14.40;99.90
26230;DHT22;13960;50.860;4.352;2022-10-16T03:08:06;14.40;99.90
26230;DHT22;13960;50.860;4.352;2022-10-16T03:10:31;14.40;99.90
26230;DHT22;13960;50.860;4.352;2022-10-16T03:12:57;14.40;99.90
26230;DHT22;13960;50.860;4.352;2022-10-16T03:15:23;14.40;99.90
26230;DHT22;13960;50.860;4.352;2022-10-16T03:17:49;14.40;99.90
26230;DHT22;13960;50.860;4.352;2022-10-16T03:20:14;14.30;99.90
26230;DHT22;13960;50.860;4.352;2022-10-16T03:22:40;14.30;99.90
26230;DHT22;13960;50.860;4.352;2022-10-16T03:25:05;14.30;99.90
26230;DHT22;13960;50.860;4.352;2022-10-16T03:27:31;14.40;99.90
26230;DHT22;13960;50.860;4.352;2022-10-16T03:29:58;14.40;99.90
26230;DHT22;13960;50.860;4.352;2022-10-16T03:32:23;14.40;99.90
26230;DHT22;13960;50.860;4.352;2022-10-16T03:34:50;14.40;99.90
26230;DHT22;13960;50.860;4.352;2022-10-16T03:37:16;14.40;99.90
26230;DHT22;13960;50.860;4.352;2022-10-16T03:39:41;14.40;99.90
26230;DHT22;13960;50.860;4.352;2022-10-16T03:42:08;14.40;99.90
26230;DHT22;13960;50.860;4.352;2022-10-16T03:44:35;14.40;99.90
26230;DHT22;13960;50.860;4.352;2022-10-16T03:47:00;14.40;99.90
26230;DHT22;13960;50.860;4.352;2022-10-16T03:49:26;14.40;99.90
26230;DHT22;13960;50.860;4.352;2022-10-16T03:51:51;14.40;99.90
26230;DHT22;13960;50.860;4.352;2022-10-16T03:54:17;14.30;99.90
26230;DHT22;13960;50.860;4.352;2022-10-16T03:56:42;14.40;99.90
26230;DHT22;13960;50.860;4.352;2022-10-16T03:59:08;14.40;99.90
26230;DHT22;13960;50.860;4.352;2022-10-16T04:01:33;14.40;99.90
26230;DHT22;13960;50.860;4.352;2022-10-16T04:03:59;14.40;99.90
26230;DHT22;13960;50.860;4.352;2022-10-16T04:06:24;14.40;99.90
26230;DHT22;13960;50.860;4.352;2022-10-16T04:08:50;14.40;99.90
26230;DHT22;13960;50.860;4.352;2022-10-16T04:11:15;14.40;99.90
26230;DHT22;13960;50.860;4.352;2022-10-16T04:13:41;14.40;99.90
26230;DHT22;13960;50.860;4.352;2022-10-16T04:16:07;14.30;99.90
26230;DHT22;13960;50.860;4.352;2022-10-16T04:18:32;14.30;99.90
26230;DHT22;13960;50.860;4.352;2022-10-16T04:21:05;14.40;99.90
26230;DHT22;13960;50.860;4.352;2022-10-16T04:23:31;14.30;99.90
26230;DHT22;13960;50.860;4.352;2022-10-16T04:25:56;14.30;99.90
26230;DHT22;13960;50.860;4.352;2022-10-16T04:28:22;14.40;99.90
26230;DHT22;13960;50.860;4.352;2022-10-16T04:30:47;14.40;99.90
26230;DHT22;13960;50.860;4.352;2022-10-16T04:33:13;14.50;99.90
26230;DHT22;13960;50.860;4.352;2022-10-16T04:35:39;14.40;99.90
26230;DHT22;13960;50.860;4.352;2022-10-16T04:38:04;14.40;99.90
26230;DHT22;13960;50.860;4.352;2022-10-16T04:40:31;14.30;99.90
26230;DHT22;13960;50.860;4.352;2022-10-16T04:43:02;14.30;99.90
26230;DHT22;13960;50.860;4.352;2022-10-16T04:45:28;14.30;99.90
26230;DHT22;13960;50.860;4.352;2022-10-16T04:47:56;14.40;99.90
26230;DHT22;13960;50.860;4.352;2022-10-16T04:50:22;14.30;99.90
26230;DHT22;13960;50.860;4.352;2022-10-16T04:52:47;14.30;99.90
26230;DHT22;13960;50.860;4.352;2022-10-16T04:55:13;14.40;99.90
26230;DHT22;13960;50.860;4.352;2022-10-16T04:57:38;14.30;99.90
26230;DHT22;13960;50.860;4.352;2022-10-16T05:00:04;14.30;99.90
26230;DHT22;13960;50.860;4.352;2022-10-16T05:02:30;14.30;99.90
26230;DHT22;13960;50.860;4.352;2022-10-16T05:04:55;14.30;99.90
26230;DHT22;13960;50.860;4.352;2022-10-16T05:07:21;14.20;99.90
26230;DHT22;13960;50.860;4.352;2022-10-16T05:09:46;14.20;99.90
26230;DHT22;13960;50.860;4.352;2022-10-16T05:12:12;14.20;99.90
26230;DHT22;13960;50.860;4.352;2022-10-16T05:14:38;14.20;99.90
26230;DHT22;13960;50.860;4.352;2022-10-16T05:17:04;14.20;99.90
26230;DHT22;13960;50.860;4.352;2022-10-16T05:19:31;14.20;99.90
26230;DHT22;13960;50.860;4.352;2022-10-16T05:21:56;14.10;99.90
26230;DHT22;13960;50.860;4.352;2022-10-16T05:24:22;14.10;99.90
26230;DHT22;13960;50.860;4.352;2022-10-16T05:26:49;14.20;99.90
26230;DHT22;13960;50.860;4.352;2022-10-16T05:29:14;14.10;99.90
26230;DHT22;13960;50.860;4.352;2022-10-16T05:31:41;14.20;99.90
26230;DHT22;13960;50.860;4.352;2022-10-16T05:34:06;14.10;99.90
26230;DHT22;13960;50.860;4.352;2022-10-16T05:36:32;14.10;99.90
26230;DHT22;13960;50.860;4.352;2022-10-16T05:38:59;14.10;99.90
26230;DHT22;13960;50.860;4.352;2022-10-16T05:41:24;14.10;99.90
26230;DHT22;13960;50.860;4.352;2022-10-16T05:43:51;14.10;99.90
26230;DHT22;13960;50.860;4.352;2022-10-16T05:46:17;14.10;99.90
26230;DHT22;13960;50.860;4.352;2022-10-16T05:48:43;14.10;99.90
26230;DHT22;13960;50.860;4.352;2022-10-16T05:51:12;14.10;99.90
26230;DHT22;13960;50.860;4.352;2022-10-16T05:53:39;14.10;99.90
26230;DHT22;13960;50.860;4.352;2022-10-16T05:56:06;14.10;99.90
26230;DHT22;13960;50.860;4.352;2022-10-16T05:58:32;14.10;99.90
26230;DHT22;13960;50.860;4.352;2022-10-16T06:01:02;14.10;99.90
26230;DHT22;13960;50.860;4.352;2022-10-16T06:03:28;14.10;99.90
26230;DHT22;13960;50.860;4.352;2022-10-16T06:05:55;14.10;99.90
26230;DHT22;13960;50.860;4.352;2022-10-16T06:08:21;14.10;99.90
26230;DHT22;13960;50.860;4.352;2022-10-16T06:10:48;14.10;99.90
26230;DHT22;13960;50.860;4.352;2022-10-16T06:13:14;14.10;99.90
26230;DHT22;13960;50.860;4.352;2022-10-16T06:15:40;14.10;99.90
26230;DHT22;13960;50.860;4.352;2022-10-16T06:18:07;14.10;99.90
26230;DHT22;13960;50.860;4.352;2022-10-16T06:20:33;14.10;99.90
26230;DHT22;13960;50.860;4.352;2022-10-16T06:22:58;14.10;99.90
26230;DHT22;13960;50.860;4.352;2022-10-16T06:25:24;14.20;99.90
26230;DHT22;13960;50.860;4.352;2022-10-16T06:27:49;14.20;99.90
26230;DHT22;13960;50.860;4.352;2022-10-16T06:30:15;14.20;99.90
26230;DHT22;13960;50.860;4.352;2022-10-16T06:32:40;14.20;99.90
26230;DHT22;13960;50.860;4.352;2022-10-16T06:35:06;14.20;99.90
26230;DHT22;13960;50.860;4.352;2022-10-16T06:37:32;14.10;99.90
26230;DHT22;13960;50.860;4.352;2022-10-16T06:39:58;14.10;99.90
26230;DHT22;13960;50.860;4.352;2022-10-16T06:42:25;14.20;99.90
26230;DHT22;13960;50.860;4.352;2022-10-16T06:44:51;14.20;99.90
26230;DHT22;13960;50.860;4.352;2022-10-16T06:47:17;14.20;99.90
26230;DHT22;13960;50.860;4.352;2022-10-16T06:49:43;14.10;99.90
26230;DHT22;13960;50.860;4.352;2022-10-16T06:52:08;14.10;99.90
26230;DHT22;13960;50.860;4.352;2022-10-16T06:54:34;14.10;99.90
26230;DHT22;13960;50.860;4.352;2022-10-16T06:56:59;14.20;99.90
26230;DHT22;13960;50.860;4.352;2022-10-16T06:59:27;14.30;99.90
26230;DHT22;13960;50.860;4.352;2022-10-16T07:01:52;14.30;99.90
26230;DHT22;13960;50.860;4.352;2022-10-16T07:04:18;14.40;99.90
26230;DHT22;13960;50.860;4.352;2022-10-16T07:06:43;14.30;99.90
26230;DHT22;13960;50.860;4.352;2022-10-16T07:09:09;14.40;99.90
26230;DHT22;13960;50.860;4.352;2022-10-16T07:11:36;14.40;99.90
26230;DHT22;13960;50.860;4.352;2022-10-16T07:14:02;14.40;99.90
26230;DHT22;13960;50.860;4.352;2022-10-16T07:16:29;14.40;99.90
26230;DHT22;13960;50.860;4.352;2022-10-16T07:18:55;14.40;99.90
26230;DHT22;13960;50.860;4.352;2022-10-16T07:21:24;14.40;99.90
26230;DHT22;13960;50.860;4.352;2022-10-16T07:23:58;14.40;99.90
26230;DHT22;13960;50.860;4.352;2022-10-16T07:26:24;14.40;99.90
26230;DHT22;13960;50.860;4.352;2022-10-16T07:28:50;14.40;99.90
26230;DHT22;13960;50.860;4.352;2022-10-16T07:31:16;14.50;99.90
26230;DHT22;13960;50.860;4.352;2022-10-16T07:33:42;14.50;99.90
26230;DHT22;13960;50.860;4.352;2022-10-16T07:36:09;14.50;99.90
26230;DHT22;13960;50.860;4.352;2022-10-16T07:38:35;14.50;99.90
26230;DHT22;13960;50.860;4.352;2022-10-16T07:41:02;14.50;99.90
26230;DHT22;13960;50.860;4.352;2022-10-16T07:43:28;14.50;99.90
26230;DHT22;13960;50.860;4.352;2022-10-16T07:45:54;14.60;99.90
26230;DHT22;13960;50.860;4.352;2022-10-16T07:48:21;14.60;99.90
26230;DHT22;13960;50.860;4.352;2022-10-16T07:50:46;14.60;99.90
26230;DHT22;13960;50.860;4.352;2022-10-16T07:53:12;14.60;99.90
26230;DHT22;13960;50.860;4.352;2022-10-16T07:55:38;14.60;99.90
26230;DHT22;13960;50.860;4.352;2022-10-16T07:58:04;14.70;99.90
26230;DHT22;13960;50.860;4.352;2022-10-16T08:00:30;14.70;99.90
26230;DHT22;13960;50.860;4.352;2022-10-16T08:02:59;14.80;99.90
26230;DHT22;13960;50.860;4.352;2022-10-16T08:05:28;14.80;99.90
26230;DHT22;13960;50.860;4.352;2022-10-16T08:07:55;14.80;99.90
26230;DHT22;13960;50.860;4.352;2022-10-16T08:10:22;14.70;99.90
26230;DHT22;13960;50.860;4.352;2022-10-16T08:12:48;14.70;99.90
26230;DHT22;13960;50.860;4.352;2022-10-16T08:15:14;14.90;99.90
26230;DHT22;13960;50.860;4.352;2022-10-16T08:17:39;14.90;99.90
26230;DHT22;13960;50.860;4.352;2022-10-16T08:20:05;14.90;99.90
26230;DHT22;13960;50.860;4.352;2022-10-16T08:22:31;15.00;99.90
26230;DHT22;13960;50.860;4.352;2022-10-16T08:24:56;15.00;99.90
26230;DHT22;13960;50.860;4.352;2022-10-16T08:27:22;15.00;99.90
26230;DHT22;13960;50.860;4.352;2022-10-16T08:29:51;15.10;99.90
26230;DHT22;13960;50.860;4.352;2022-10-16T08:32:16;15.10;99.90
26230;DHT22;13960;50.860;4.352;2022-10-16T08:34:42;15.10;99.90
26230;DHT22;13960;50.860;4.352;2022-10-16T08:37:07;15.10;99.90
26230;DHT22;13960;50.860;4.352;2022-10-16T08:39:36;15.20;99.90
26230;DHT22;13960;50.860;4.352;2022-10-16T08:42:13;15.20;99.90
26230;DHT22;13960;50.860;4.352;2022-10-16T08:48:08;15.40;99.90
26230;DHT22;13960;50.860;4.352;2022-10-16T08:50:12;15.40;99.90
26230;DHT22;13960;50.860;4.352;2022-10-16T08:52:42;15.50;99.90
26230;DHT22;13960;50.860;4.352;2022-10-16T08:55:54;15.40;99.90
26230;DHT22;13960;50.860;4.352;2022-10-16T08:57:54;15.40;99.90
26230;DHT22;13960;50.860;4.352;2022-10-16T09:00:20;15.40;99.90
26230;DHT22;13960;50.860;4.352;2022-10-16T09:02:59;15.40;99.90
26230;DHT22;13960;50.860;4.352;2022-10-16T09:10:54;15.50;99.90
26230;DHT22;13960;50.860;4.352;2022-10-16T09:13:26;15.60;99.90
26230;DHT22;13960;50.860;4.352;2022-10-16T09:15:55;15.60;99.90
26230;DHT22;13960;50.860;4.352;2022-10-16T09:18:30;15.50;99.90
26230;DHT22;13960;50.860;4.352;2022-10-16T09:23:30;15.60;99.90
26230;DHT22;13960;50.860;4.352;2022-10-16T09:25:58;15.60;99.90
26230;DHT22;13960;50.860;4.352;2022-10-16T09:28:24;15.60;99.90
26230;DHT22;13960;50.860;4.352;2022-10-16T09:30:50;15.70;99.90
26230;DHT22;13960;50.860;4.352;2022-10-16T09:33:16;15.70;99.90
26230;DHT22;13960;50.860;4.352;2022-10-16T09:38:08;15.80;99.90
26230;DHT22;13960;50.860;4.352;2022-10-16T09:40:37;15.90;99.90
26230;DHT22;13960;50.860;4.352;2022-10-16T09:45:32;15.90;99.90
26230;DHT22;13960;50.860;4.352;2022-10-16T09:48:00;16.00;99.90
26230;DHT22;13960;50.860;4.352;2022-10-16T09:50:27;16.10;99.90
26230;DHT22;13960;50.860;4.352;2022-10-16T09:53:04;16.10;99.90
26230;DHT22;13960;50.860;4.352;2022-10-16T09:55:30;16.20;99.90
26230;DHT22;13960;50.860;4.352;2022-10-16T09:57:56;16.20;99.90
26230;DHT22;13960;50.860;4.352;2022-10-16T10:00:22;16.20;99.90
26230;DHT22;13960;50.860;4.352;2022-10-16T10:02:48;16.30;99.90
26230;DHT22;13960;50.860;4.352;2022-10-16T10:05:17;16.40;99.90
26230;DHT22;13960;50.860;4.352;2022-10-16T10:07:43;16.40;99.90
26230;DHT22;13960;50.860;4.352;2022-10-16T10:10:21;16.60;99.90
26230;DHT22;13960;50.860;4.352;2022-10-16T10:12:47;16.70;99.90
26230;DHT22;13960;50.860;4.352;2022-10-16T10:15:13;16.70;99.90
26230;DHT22;13960;50.860;4.352;2022-10-16T10:17:48;16.70;99.90
26230;DHT22;13960;50.860;4.352;2022-10-16T10:20:21;16.80;99.90
26230;DHT22;13960;50.860;4.352;2022-10-16T10:22:47;16.90;99.90
26230;DHT22;13960;50.860;4.352;2022-10-16T10:30:23;16.70;99.90
26230;DHT22;13960;50.860;4.352;2022-10-16T10:38:00;16.80;99.90
26230;DHT22;13960;50.860;4.352;2022-10-16T10:43:17;17.10;99.90
26230;DHT22;13960;50.860;4.352;2022-10-16T10:45:47;17.30;99.90
26230;DHT22;13960;50.860;4.352;2022-10-16T10:50:57;17.10;99.90
26230;DHT22;13960;50.860;4.352;2022-10-16T11:08:22;17.50;99.90
26230;DHT22;13960;50.860;4.352;2022-10-16T11:11:00;17.40;99.90
26230;DHT22;13960;50.860;4.352;2022-10-16T11:15:59;17.30;99.90
26230;DHT22;13960;50.860;4.352;2022-10-16T11:18:30;17.40;99.90
26230;DHT22;13960;50.860;4.352;2022-10-16T11:21:00;17.40;99.90
26230;DHT22;13960;50.860;4.352;2022-10-16T11:23:31;17.50;99.90
26230;DHT22;13960;50.860;4.352;2022-10-16T11:26:02;17.80;99.90
26230;DHT22;13960;50.860;4.352;2022-10-16T11:28:31;18.00;99.90
26230;DHT22;13960;50.860;4.352;2022-10-16T11:33:57;17.50;99.90
26230;DHT22;13960;50.860;4.352;2022-10-16T11:38:56;17.70;99.90
26230;DHT22;13960;50.860;4.352;2022-10-16T11:46:43;18.40;99.90
26230;DHT22;13960;50.860;4.352;2022-10-16T11:49:15;18.50;99.90
26230;DHT22;13960;50.860;4.352;2022-10-16T11:51:43;18.30;99.90
26230;DHT22;13960;50.860;4.352;2022-10-16T11:56:37;18.20;99.90
26230;DHT22;13960;50.860;4.352;2022-10-16T11:59:26;18.30;99.90
26230;DHT22;13960;50.860;4.352;2022-10-16T12:02:38;18.20;99.90
26230;DHT22;13960;50.860;4.352;2022-10-16T12:04:43;18.20;99.90
26230;DHT22;13960;50.860;4.352;2022-10-16T12:07:24;18.60;99.90
26230;DHT22;13960;50.860;4.352;2022-10-16T12:09:51;18.80;99.90
26230;DHT22;13960;50.860;4.352;2022-10-16T12:12:25;18.80;99.90
26230;DHT22;13960;50.860;4.352;2022-10-16T12:17:35;19.00;99.90
26230;DHT22;13960;50.860;4.352;2022-10-16T12:22:49;19.00;99.90
26230;DHT22;13960;50.860;4.352;2022-10-16T12:25:26;18.90;99.90
26230;DHT22;13960;50.860;4.352;2022-10-16T12:30:37;18.70;99.90
26230;DHT22;13960;50.860;4.352;2022-10-16T12:33:04;18.70;99.90
26230;DHT22;13960;50.860;4.352;2022-10-16T12:35:31;18.80;99.90
26230;DHT22;13960;50.860;4.352;2022-10-16T12:38:04;19.00;99.90
26230;DHT22;13960;50.860;4.352;2022-10-16T12:40:31;19.10;99.90
26230;DHT22;13960;50.860;4.352;2022-10-16T12:42:58;19.20;99.90
26230;DHT22;13960;50.860;4.352;2022-10-16T12:45:25;19.20;99.90
26230;DHT22;13960;50.860;4.352;2022-10-16T12:47:51;19.00;99.90
26230;DHT22;13960;50.860;4.352;2022-10-16T12:50:29;18.80;99.90
26230;DHT22;13960;50.860;4.352;2022-10-16T12:52:58;18.90;99.90
26230;DHT22;13960;50.860;4.352;2022-10-16T12:55:24;19.00;99.90
26230;DHT22;13960;50.860;4.352;2022-10-16T13:01:04;18.80;99.90
26230;DHT22;13960;50.860;4.352;2022-10-16T13:05:52;18.60;99.90
26230;DHT22;13960;50.860;4.352;2022-10-16T13:10:59;19.20;99.90
26230;DHT22;13960;50.860;4.352;2022-10-16T13:13:32;19.50;99.90
26230;DHT22;13960;50.860;4.352;2022-10-16T13:21:33;19.40;99.90
26230;DHT22;13960;50.860;4.352;2022-10-16T13:26:33;19.40;99.90
26230;DHT22;13960;50.860;4.352;2022-10-16T13:29:01;19.80;99.90
26230;DHT22;13960;50.860;4.352;2022-10-16T13:31:27;20.10;99.90
26230;DHT22;13960;50.860;4.352;2022-10-16T13:33:54;20.10;99.90
26230;DHT22;13960;50.860;4.352;2022-10-16T13:36:24;20.10;99.90
26230;DHT22;13960;50.860;4.352;2022-10-16T13:41:34;20.00;99.90
26230;DHT22;13960;50.860;4.352;2022-10-16T13:44:00;19.80;99.90
26230;DHT22;13960;50.860;4.352;2022-10-16T13:46:26;19.60;99.90
26230;DHT22;13960;50.860;4.352;2022-10-16T13:48:58;19.40;99.90
26230;DHT22;13960;50.860;4.352;2022-10-16T13:51:24;19.40;99.90
26230;DHT22;13960;50.860;4.352;2022-10-16T13:53:49;19.40;99.90
26230;DHT22;13960;50.860;4.352;2022-10-16T13:56:16;19.30;99.90
26230;DHT22;13960;50.860;4.352;2022-10-16T13:58:42;19.30;99.90
26230;DHT22;13960;50.860;4.352;2022-10-16T14:01:18;19.50;99.90
26230;DHT22;13960;50.860;4.352;2022-10-16T14:03:45;19.70;99.90
26230;DHT22;13960;50.860;4.352;2022-10-16T14:06:12;19.60;99.90
26230;DHT22;13960;50.860;4.352;2022-10-16T14:08:41;19.30;99.90
26230;DHT22;13960;50.860;4.352;2022-10-16T14:11:07;19.10;99.90
26230;DHT22;13960;50.860;4.352;2022-10-16T14:13:39;19.20;99.90
26230;DHT22;13960;50.860;4.352;2022-10-16T14:16:16;19.20;99.90
26230;DHT22;13960;50.860;4.352;2022-10-16T14:18:44;19.20;99.90
26230;DHT22;13960;50.860;4.352;2022-10-16T14:21:14;19.20;99.90
26230;DHT22;13960;50.860;4.352;2022-10-16T14:23:41;19.20;99.90
26230;DHT22;13960;50.860;4.352;2022-10-16T14:28:36;19.20;99.90
26230;DHT22;13960;50.860;4.352;2022-10-16T14:31:02;19.30;99.90
26230;DHT22;13960;50.860;4.352;2022-10-16T14:33:40;19.40;99.90
26230;DHT22;13960;50.860;4.352;2022-10-16T14:38:32;19.70;99.90
26230;DHT22;13960;50.860;4.352;2022-10-16T14:40:58;19.60;99.90
26230;DHT22;13960;50.860;4.352;2022-10-16T14:43:35;19.60;99.90
26230;DHT22;13960;50.860;4.352;2022-10-16T14:46:31;19.60;99.90
26230;DHT22;13960;50.860;4.352;2022-10-16T14:49:02;19.70;99.90
26230;DHT22;13960;50.860;4.352;2022-10-16T14:51:29;19.90;99.90
26230;DHT22;13960;50.860;4.352;2022-10-16T14:53:56;19.60;99.90
26230;DHT22;13960;50.860;4.352;2022-10-16T14:56:23;19.30;99.90
26230;DHT22;13960;50.860;4.352;2022-10-16T14:58:51;19.20;99.90
26230;DHT22;13960;50.860;4.352;2022-10-16T15:01:17;19.20;99.90
26230;DHT22;13960;50.860;4.352;2022-10-16T15:03:44;19.20;99.90
26230;DHT22;13960;50.860;4.352;2022-10-16T15:06:15;19.20;99.90
26230;DHT22;13960;50.860;4.352;2022-10-16T15:08:41;19.20;99.90
26230;DHT22;13960;50.860;4.352;2022-10-16T15:11:13;19.20;99.90
26230;DHT22;13960;50.860;4.352;2022-10-16T15:13:40;19.10;99.90
26230;DHT22;13960;50.860;4.352;2022-10-16T15:16:08;19.10;99.90
26230;DHT22;13960;50.860;4.352;2022-10-16T15:18:35;19.20;99.90
26230;DHT22;13960;50.860;4.352;2022-10-16T15:21:01;19.40;99.90
26230;DHT22;13960;50.860;4.352;2022-10-16T15:23:26;19.30;99.90
26230;DHT22;13960;50.860;4.352;2022-10-16T15:25:53;19.30;99.90
26230;DHT22;13960;50.860;4.352;2022-10-16T15:28:19;19.40;99.90
26230;DHT22;13960;50.860;4.352;2022-10-16T15:30:46;19.40;99.90
26230;DHT22;13960;50.860;4.352;2022-10-16T15:33:15;19.30;99.90
26230;DHT22;13960;50.860;4.352;2022-10-16T15:35:42;19.30;99.90
26230;DHT22;13960;50.860;4.352;2022-10-16T15:38:13;19.40;99.90
26230;DHT22;13960;50.860;4.352;2022-10-16T15:40:39;19.30;99.90
26230;DHT22;13960;50.860;4.352;2022-10-16T15:43:05;19.30;99.90
26230;DHT22;13960;50.860;4.352;2022-10-16T15:45:31;19.00;99.90
26230;DHT22;13960;50.860;4.352;2022-10-16T15:47:56;19.00;99.90
26230;DHT22;13960;50.860;4.352;2022-10-16T15:50:22;19.10;99.90
26230;DHT22;13960;50.860;4.352;2022-10-16T15:52:47;19.10;99.90
26230;DHT22;13960;50.860;4.352;2022-10-16T15:55:14;19.00;99.90
26230;DHT22;13960;50.860;4.352;2022-10-16T15:57:40;19.10;99.90
26230;DHT22;13960;50.860;4.352;2022-10-16T16:00:10;19.10;99.90
26230;DHT22;13960;50.860;4.352;2022-10-16T16:02:36;19.20;99.90
26230;DHT22;13960;50.860;4.352;2022-10-16T16:05:02;19.40;99.90
26230;DHT22;13960;50.860;4.352;2022-10-16T16:07:27;19.30;99.90
26230;DHT22;13960;50.860;4.352;2022-10-16T16:09:53;19.20;99.90
26230;DHT22;13960;50.860;4.352;2022-10-16T16:12:19;19.10;99.90
26230;DHT22;13960;50.860;4.352;2022-10-16T16:14:45;19.10;99.90
26230;DHT22;13960;50.860;4.352;2022-10-16T16:17:13;19.20;99.90
26230;DHT22;13960;50.860;4.352;2022-10-16T16:19:39;19.40;99.90
26230;DHT22;13960;50.860;4.352;2022-10-16T16:22:04;19.60;99.90
26230;DHT22;13960;50.860;4.352;2022-10-16T16:24:30;19.50;99.90
26230;DHT22;13960;50.860;4.352;2022-10-16T16:26:56;19.20;99.90
26230;DHT22;13960;50.860;4.352;2022-10-16T16:29:21;19.20;99.90
26230;DHT22;13960;50.860;4.352;2022-10-16T16:31:47;19.60;99.90
26230;DHT22;13960;50.860;4.352;2022-10-16T16:34:13;19.60;99.90
26230;DHT22;13960;50.860;4.352;2022-10-16T16:36:39;19.70;99.90
26230;DHT22;13960;50.860;4.352;2022-10-16T16:39:06;19.70;99.90
26230;DHT22;13960;50.860;4.352;2022-10-16T16:41:32;19.30;99.90
26230;DHT22;13960;50.860;4.352;2022-10-16T16:44:02;19.10;99.90
26230;DHT22;13960;50.860;4.352;2022-10-16T16:46:28;19.00;99.90
26230;DHT22;13960;50.860;4.352;2022-10-16T16:48:54;18.90;99.90
26230;DHT22;13960;50.860;4.352;2022-10-16T16:51:20;18.70;99.90
26230;DHT22;13960;50.860;4.352;2022-10-16T16:53:50;18.60;99.90
26230;DHT22;13960;50.860;4.352;2022-10-16T16:56:16;18.80;99.90
26230;DHT22;13960;50.860;4.352;2022-10-16T16:58:44;19.20;99.90
26230;DHT22;13960;50.860;4.352;2022-10-16T17:01:10;18.90;99.90
26230;DHT22;13960;50.860;4.352;2022-10-16T17:03:36;18.40;99.90
26230;DHT22;13960;50.860;4.352;2022-10-16T17:06:03;18.40;99.90
26230;DHT22;13960;50.860;4.352;2022-10-16T17:08:28;18.60;99.90
26230;DHT22;13960;50.860;4.352;2022-10-16T17:10:55;18.50;99.90
26230;DHT22;13960;50.860;4.352;2022-10-16T17:13:22;18.30;99.90
26230;DHT22;13960;50.860;4.352;2022-10-16T17:15:48;18.40;99.90
26230;DHT22;13960;50.860;4.352;2022-10-16T17:18:14;18.60;99.90